• Join FlightAware (Why Join?)
  • Login
  • US Flag GB Flag 
15:54 EDT


 

Airport Tracker/Info


-or-


 

Live Flight TrackerFlight Track Log ✈ DAL3970 ✈ 28-Apr-2013 ✈ KCWA - KDTW

Flight Track Log - Related Links

Times and Time Zones

All times are in EDT time to prevent confusion due to time zone crossing. See the DAL3970 flight status page for this flight to view local times or setup timezone preferences in your user account.

Time Position Orientation Groundspeed Altitude Reporting Facility
EDT Latitude Longitude Course Direction KTS MPH feet Rate Location/Type
07:41 44.7850 -89.6164 109° East 160 184 2,600  Level Minneapolis Center
07:42 44.7664 -89.5503 112° Southeast 184 212 4,300 1,860 Climbing Minneapolis Center
07:43 44.7514 -89.4517 102° East 249 287 6,400 2,520 Climbing Minneapolis Center
07:44 44.6911 -89.1525 107° East  Level FlightAware Approximate
07:44 44.7361 -89.3489 102° East 274 315 9,400  Level Minneapolis Center
07:45 44.6833 -89.0221 90° East  Level FlightAware Approximate
07:45 44.7178 -89.2306 102° East 295 339 11,500  Level Minneapolis Center
07:46 44.6535 -88.8973 109° East  Level FlightAware Approximate
07:46 44.6989 -89.1042 102° East 340 391 13,300  Level Minneapolis Center
07:47 44.6775 -88.9725 103° East 350 403 14,700 1,260 Climbing Minneapolis Center
07:48 44.6556 -88.8289 102° East 369 425 15,900 1,080 Climbing Minneapolis Center
07:49 44.6319 -88.6767 102° East 396 456 16,900 1,020 Climbing Minneapolis Center
07:50 44.6061 -88.5164 103° East 415 478 18,000 1,020 Climbing Minneapolis Center
07:51 44.5806 -88.3536 102° East 423 487 19,000 960 Climbing Minneapolis Center
07:52 44.5511 -88.1892 104° East 433 498 20,000 1,020 Climbing Minneapolis Center
07:53 44.4814 -88.0514 125° Southeast 434 499 21,100 1,020 Climbing Minneapolis Center
07:54 44.4111 -87.9139 126° Southeast 433 498 22,100 960 Climbing Minneapolis Center
07:55 44.3278 -87.7544 126° Southeast 433 498 23,300 900 Climbing Minneapolis Center
07:56 44.2692 -87.6397 125° Southeast 433 498 24,200 1,020 Climbing Minneapolis Center
07:57 44.1856 -87.4803 126° Southeast 433 498 25,400 1,140 Climbing Minneapolis Center
07:58 44.1156 -87.3450 126° Southeast 430 495 26,500 780 Climbing Minneapolis Center
07:59 44.0394 -87.2028 127° Southeast 429 494 27,000 240 Climbing Minneapolis Center
08:00 43.9664 -87.0642 126° Southeast 441 507 27,000  Level Minneapolis Center
08:01 43.8917 -86.9236 126° Southeast 450 518 27,000  Level Minneapolis Center
08:02 43.8172 -86.7836 126° Southeast 452 520 27,000  Level Minneapolis Center
08:03 43.7425 -86.6444 127° Southeast 452 520 27,000  Level Minneapolis Center
08:04 43.6669 -86.5044 127° Southeast 454 522 27,000  Level Minneapolis Center
08:05 43.5914 -86.3653 127° Southeast 453 521 27,000  Level Minneapolis Center
08:05 43.5761 -86.3375 127° Southeast 453 521 27,000  Level Chicago Center
08:07 43.5014 -86.1975 126° Southeast 453 521 27,000  Level Chicago Center
08:08 43.4089 -86.0278 127° Southeast 459 528 27,000 -300 Level Chicago Center
08:09 43.3639 -85.8631 111° Southeast 462 532 26,500 -780 Descending Chicago Center
08:10 43.3331 -85.6947 104° East 454 522 25,500 -1,020 Descending Chicago Center
08:11 43.3036 -85.5275 104° East 449 517 24,500 -1,020 Descending Chicago Center
08:12 43.2739 -85.3647 104° East 441 507 23,500 -840 Descending Chicago Center
08:12 43.2503 -85.2356 104° East 444 511 23,000 -300 Descending Cleveland Center
08:13 43.2211 -85.0767 104° East 444 511 23,000  Level Cleveland Center
08:14 43.1897 -84.9147 105° East 444 511 23,000  Level Cleveland Center
08:15 43.1567 -84.7386 104° East 439 505 23,000  Level Cleveland Center
08:16 43.1247 -84.5772 105° East 439 505 23,000 -420 Level Cleveland Center
08:17 43.0925 -84.4186 105° East 439 505 22,200 -960 Descending Cleveland Center
08:18 43.0936 -84.3975 86° East 436 502 21,800 -1,920 Descending Chicago Center
08:18 43.0658 -84.2778 108° East 439 505 20,300 -2,040 Descending Cleveland Center
08:19 43.0372 -84.1283 105° East 426 490 18,300 -2,160 Descending Cleveland Center
08:20 43.0250 -84.0508 102° East 383 441 17,200 -2,160 Descending Cleveland Center
08:20 43.0103 -83.9875 108° East 380 437 16,300 -2,100 Descending Cleveland Center
08:21 42.9811 -83.8442 105° East 363 418 14,100 -2,040 Descending Cleveland Center
08:22 42.9017 -83.7775 148° Southeast 345 397 12,200 -1,080 Descending Cleveland Center
08:23 42.8092 -83.7219 156° South 349 402 12,000 -540 Descending Cleveland Center
08:24 42.7272 -83.6725 156° South 319 367 11,200 -900 Descending Cleveland Center
08:25 42.6575 -83.6325 157° South 327 376 10,300 -1,200 Descending Cleveland Center
08:26 42.6028 -83.5650 138° Southeast 300 345 8,800 -1,500 Descending Cleveland Center
08:28 42.5550 -83.4781 127° Southeast 214 246 7,200 -1,200 Descending Cleveland Center
08:28 42.5269 -83.4317 129° Southeast 227 261 6,400 -840 Descending Cleveland Center
08:29 42.4953 -83.3711 125° Southeast 208 239 5,700 -1,020 Descending Cleveland Center
08:31 42.4594 -83.2992 124° Southeast 197 227 4,200 -780 Descending Cleveland Center
08:32 42.4008 -83.3022 182° South 203 234 4,000 -480 Descending Cleveland Center
08:33 42.3467 -83.3083 185° South 201 231 3,300 -780 Descending Cleveland Center
08:34 42.2964 -83.3203 190° South 131 151 2,400 -840 Descending Cleveland Center